createdAt,value
2023-03-20T00:02:05.643Z,74.10
2023-03-20T00:04:32.746Z,74.00
2023-03-20T00:07:03.650Z,74.00
2023-03-20T00:09:31.462Z,74.00
2023-03-20T00:11:58.367Z,74.00
2023-03-20T00:14:26.355Z,74.00
2023-03-20T00:16:53.165Z,73.90
2023-03-20T00:19:25.983Z,73.90
2023-03-20T00:21:54.437Z,73.80
2023-03-20T00:24:21.861Z,73.80
2023-03-20T00:26:50.695Z,73.80
2023-03-20T00:29:20.642Z,73.80
2023-03-20T00:31:47.713Z,73.70
2023-03-20T00:34:17.360Z,73.80
2023-03-20T00:36:44.162Z,73.80
2023-03-20T00:39:11.238Z,73.70
2023-03-20T00:41:48.120Z,73.70
2023-03-20T00:44:35.742Z,73.60
2023-03-20T00:47:09.621Z,73.60
2023-03-20T00:49:36.414Z,73.60
2023-03-20T00:52:05.668Z,73.70
2023-03-20T00:54:32.744Z,73.60
2023-03-20T00:57:02.842Z,73.60
2023-03-20T00:59:34.793Z,73.60
2023-03-20T01:02:02.678Z,73.60
2023-03-20T01:04:36.358Z,73.70
2023-03-20T01:07:03.609Z,73.70
2023-03-20T01:09:30.531Z,73.60
2023-03-20T01:11:59.744Z,73.60
2023-03-20T01:14:26.547Z,73.60
2023-03-20T01:16:53.316Z,73.60
2023-03-20T01:19:20.194Z,73.70
2023-03-20T01:21:46.859Z,73.70
2023-03-20T01:24:13.586Z,73.70
2023-03-20T01:26:42.394Z,73.70
2023-03-20T01:29:23.011Z,73.60
2023-03-20T01:31:50.721Z,73.70
2023-03-20T01:34:18.075Z,73.70
2023-03-20T01:36:56.846Z,73.70
2023-03-20T01:39:32.572Z,73.70
2023-03-20T01:42:00.299Z,73.70
2023-03-20T01:44:30.691Z,73.80
2023-03-20T01:46:58.892Z,73.80
2023-03-20T01:49:26.297Z,73.80
2023-03-20T01:51:54.591Z,73.90
2023-03-20T01:54:25.769Z,73.90
2023-03-20T01:57:12.415Z,73.80
2023-03-20T01:59:44.669Z,73.90
2023-03-20T02:02:16.113Z,73.90
2023-03-20T02:04:46.376Z,73.90
2023-03-20T02:07:16.572Z,73.90
2023-03-20T02:09:43.213Z,73.90
2023-03-20T02:12:10.941Z,73.90
2023-03-20T02:14:39.227Z,73.90
2023-03-20T02:17:08.900Z,73.80
2023-03-20T02:19:58.938Z,73.90
2023-03-20T02:22:59.618Z,73.90
2023-03-20T02:25:49.857Z,73.90
2023-03-20T02:28:25.351Z,74.00
2023-03-20T02:31:29.934Z,73.90
2023-03-20T02:34:03.473Z,74.00
2023-03-20T02:36:48.307Z,74.00
2023-03-20T02:39:27.653Z,74.00
2023-03-20T02:42:15.438Z,74.00
2023-03-20T02:44:51.000Z,74.00
2023-03-20T02:47:22.844Z,74.00
2023-03-20T02:49:57.803Z,74.00
2023-03-20T02:52:33.661Z,74.00
2023-03-20T02:55:07.170Z,74.00
2023-03-20T02:57:43.480Z,74.00
2023-03-20T03:00:35.594Z,74.00
2023-03-20T03:03:12.832Z,74.00
2023-03-20T03:06:03.008Z,73.90
2023-03-20T03:08:35.782Z,73.90
2023-03-20T03:11:06.348Z,73.90
2023-03-20T03:13:40.249Z,74.00
2023-03-20T03:16:12.241Z,74.00
2023-03-20T03:18:41.789Z,73.90
2023-03-20T03:21:11.373Z,73.90
2023-03-20T03:23:47.769Z,73.90
2023-03-20T03:26:34.249Z,73.90
2023-03-20T03:29:03.850Z,73.90
2023-03-20T03:31:32.746Z,73.90
2023-03-20T03:34:01.382Z,73.90
2023-03-20T03:36:41.378Z,73.90
2023-03-20T03:39:20.450Z,73.90
2023-03-20T03:41:57.366Z,73.90
2023-03-20T03:44:42.351Z,73.90
2023-03-20T03:47:18.546Z,73.90
2023-03-20T03:49:51.280Z,73.90
2023-03-20T03:52:22.579Z,73.90
2023-03-20T03:55:00.729Z,74.00
2023-03-20T03:57:40.273Z,74.00
2023-03-20T04:00:11.769Z,74.00
2023-03-20T04:02:39.160Z,74.00
2023-03-20T04:05:07.330Z,74.00
2023-03-20T04:07:40.031Z,74.00
2023-03-20T04:10:07.503Z,73.90
2023-03-20T04:12:43.622Z,73.90
2023-03-20T04:15:11.774Z,74.00
2023-03-20T04:17:39.010Z,73.90
2023-03-20T04:20:06.865Z,73.90
2023-03-20T04:22:34.946Z,73.90
2023-03-20T04:25:04.067Z,73.90
2023-03-20T04:27:30.851Z,73.90
2023-03-20T04:29:57.800Z,73.80
2023-03-20T04:32:24.520Z,73.80
2023-03-20T04:34:52.140Z,73.80
2023-03-20T04:37:19.298Z,73.80
2023-03-20T04:39:46.444Z,73.80
2023-03-20T04:42:13.247Z,73.80
2023-03-20T04:44:39.855Z,73.80
2023-03-20T04:47:06.763Z,73.80
2023-03-20T04:49:33.381Z,73.80
2023-03-20T04:52:00.012Z,73.80
2023-03-20T04:54:26.719Z,73.80
2023-03-20T04:56:53.321Z,73.70
2023-03-20T04:59:20.383Z,73.80
2023-03-20T05:01:47.075Z,73.70
2023-03-20T05:04:13.918Z,73.70
2023-03-20T05:06:40.801Z,73.70
2023-03-20T05:09:07.502Z,73.70
2023-03-20T05:11:35.541Z,73.70
2023-03-20T05:14:02.173Z,73.60
2023-03-20T05:16:28.815Z,73.70
2023-03-20T05:18:55.672Z,73.70
2023-03-20T05:21:22.337Z,73.70
2023-03-20T05:23:48.933Z,73.70
2023-03-20T05:26:15.870Z,73.60
2023-03-20T05:28:42.563Z,73.70
2023-03-20T05:31:09.241Z,73.70
2023-03-20T05:33:38.101Z,73.60
2023-03-20T05:36:06.088Z,73.60
2023-03-20T05:38:32.894Z,73.60
2023-03-20T05:41:01.056Z,73.60
2023-03-20T05:43:29.060Z,73.60
2023-03-20T05:45:56.764Z,73.60
2023-03-20T05:48:23.958Z,73.60
2023-03-20T05:50:50.832Z,73.60
2023-03-20T05:53:17.505Z,73.60
2023-03-20T05:55:44.700Z,73.60
2023-03-20T05:58:12.177Z,73.60
2023-03-20T06:00:39.820Z,73.60
2023-03-20T06:03:06.984Z,73.60
2023-03-20T06:05:35.125Z,73.60
2023-03-20T06:08:02.704Z,73.60
2023-03-20T06:10:30.151Z,73.60
2023-03-20T06:12:58.148Z,73.60
2023-03-20T06:15:24.869Z,73.60
2023-03-20T06:17:51.536Z,73.60
2023-03-20T06:20:25.796Z,73.60
2023-03-20T06:22:52.769Z,73.60
2023-03-20T06:25:20.613Z,73.60
2023-03-20T06:27:48.382Z,73.60
2023-03-20T06:30:16.462Z,73.60
2023-03-20T06:32:43.792Z,73.60
2023-03-20T06:35:11.746Z,73.60
2023-03-20T06:37:38.430Z,73.60
2023-03-20T06:40:05.781Z,73.60
2023-03-20T06:42:32.573Z,73.60
2023-03-20T06:44:59.265Z,73.60
2023-03-20T06:47:26.028Z,73.60
2023-03-20T06:49:52.688Z,73.60
2023-03-20T06:52:22.668Z,73.60
2023-03-20T06:54:51.094Z,73.70
2023-03-20T06:57:18.239Z,73.70
2023-03-20T06:59:45.026Z,73.70
2023-03-20T07:02:11.851Z,73.70
2023-03-20T07:04:38.779Z,73.70
2023-03-20T07:07:05.580Z,73.70
2023-03-20T07:09:33.120Z,73.70
2023-03-20T07:12:00.523Z,73.70
2023-03-20T07:14:27.347Z,73.70
2023-03-20T07:16:54.900Z,73.70
2023-03-20T07:19:22.027Z,73.70
2023-03-20T07:21:48.951Z,73.70
2023-03-20T07:24:15.622Z,73.70
2023-03-20T07:26:42.289Z,73.70
2023-03-20T07:29:08.936Z,73.70
2023-03-20T07:31:35.616Z,73.70
2023-03-20T07:34:02.289Z,73.70
2023-03-20T07:36:28.945Z,73.70
2023-03-20T07:38:55.879Z,73.70
2023-03-20T07:41:22.490Z,73.70
2023-03-20T07:43:49.173Z,73.70
2023-03-20T07:46:16.167Z,73.70
2023-03-20T07:48:42.833Z,73.70
2023-03-20T07:51:09.619Z,73.80
2023-03-20T07:53:36.999Z,73.70
2023-03-20T07:56:03.789Z,73.80
2023-03-20T07:58:30.446Z,73.80
2023-03-20T08:00:58.681Z,73.80
2023-03-20T08:03:25.646Z,73.80
2023-03-20T08:05:53.728Z,73.80
2023-03-20T08:08:20.532Z,73.80
2023-03-20T08:10:48.198Z,73.80
2023-03-20T08:13:15.578Z,73.80
2023-03-20T08:15:42.233Z,73.80
2023-03-20T08:18:08.909Z,73.80
2023-03-20T08:20:35.600Z,73.80
2023-03-20T08:23:02.193Z,73.70
2023-03-20T08:25:33.608Z,73.70
2023-03-20T08:28:01.646Z,73.70
2023-03-20T08:30:28.379Z,73.70
2023-03-20T08:32:55.274Z,73.70
2023-03-20T08:35:45.947Z,73.60
2023-03-20T08:38:12.874Z,73.60
2023-03-20T08:40:42.788Z,73.50
2023-03-20T08:43:09.542Z,73.60
2023-03-20T08:45:36.503Z,73.50
2023-03-20T08:48:03.838Z,73.40
2023-03-20T08:50:31.505Z,73.40
2023-03-20T08:52:58.208Z,73.30
2023-03-20T08:55:24.945Z,73.30
2023-03-20T08:57:51.601Z,73.30
2023-03-20T09:00:20.197Z,73.30
2023-03-20T09:02:46.896Z,73.30
2023-03-20T09:05:13.636Z,73.30
2023-03-20T09:07:40.321Z,73.30
2023-03-20T09:10:07.614Z,73.30
2023-03-20T09:12:34.368Z,73.40
2023-03-20T09:15:02.328Z,73.50
2023-03-20T09:17:29.077Z,73.50
2023-03-20T09:19:55.845Z,73.50
2023-03-20T09:22:22.586Z,73.40
2023-03-20T09:24:49.224Z,73.40
2023-03-20T09:27:17.054Z,73.40
2023-03-20T09:29:43.893Z,73.40
2023-03-20T09:32:13.060Z,73.40
2023-03-20T09:34:39.754Z,73.40
2023-03-20T09:37:06.725Z,73.30
2023-03-20T09:39:34.165Z,73.40
2023-03-20T09:42:18.020Z,73.30
2023-03-20T09:44:47.411Z,73.40
2023-03-20T09:47:20.397Z,73.40
2023-03-20T09:50:22.232Z,73.40
2023-03-20T09:53:19.308Z,73.50
2023-03-20T09:55:46.660Z,73.50
2023-03-20T09:58:20.588Z,73.50
2023-03-20T10:00:47.681Z,73.50
2023-03-20T10:03:19.377Z,73.50
2023-03-20T10:06:01.716Z,73.50
2023-03-20T10:08:33.251Z,73.50
2023-03-20T10:11:18.910Z,73.50
2023-03-20T10:13:57.390Z,73.50
2023-03-20T10:16:27.009Z,73.50
2023-03-20T10:18:59.444Z,73.60
2023-03-20T10:21:42.565Z,73.60
2023-03-20T10:24:25.934Z,73.60
2023-03-20T10:26:55.197Z,73.70
2023-03-20T10:29:59.412Z,73.70
2023-03-20T10:32:56.242Z,73.70
2023-03-20T10:35:39.851Z,73.80
2023-03-20T10:38:52.335Z,73.90
2023-03-20T10:41:25.602Z,74.00
2023-03-20T10:43:53.812Z,74.30
2023-03-20T10:46:42.922Z,74.30
2023-03-20T10:49:21.759Z,74.40
2023-03-20T10:51:51.701Z,74.50
2023-03-20T10:54:26.899Z,74.70
2023-03-20T10:56:57.080Z,74.60
2023-03-20T10:59:38.739Z,74.70
2023-03-20T11:02:14.366Z,74.80
2023-03-20T11:04:41.359Z,74.80
2023-03-20T11:07:33.853Z,74.90
2023-03-20T11:10:16.814Z,74.80
2023-03-20T11:12:46.640Z,74.80
2023-03-20T11:15:19.506Z,74.80
2023-03-20T11:17:52.641Z,74.80
2023-03-20T11:20:19.353Z,74.60
2023-03-20T11:22:48.855Z,74.70
2023-03-20T11:25:39.778Z,74.50
2023-03-20T11:28:19.408Z,74.50
2023-03-20T11:31:03.591Z,74.40
2023-03-20T11:33:33.632Z,74.40
2023-03-20T11:36:00.341Z,74.20
2023-03-20T11:38:31.452Z,74.20
2023-03-20T11:40:58.382Z,74.20
2023-03-20T11:43:27.644Z,74.60
2023-03-20T11:45:58.262Z,74.80
2023-03-20T11:48:47.759Z,75.00
2023-03-20T11:51:20.270Z,75.00
2023-03-20T11:54:01.670Z,75.00
2023-03-20T11:56:32.750Z,75.20
2023-03-20T11:59:18.391Z,75.40
2023-03-20T12:01:54.020Z,75.30
2023-03-20T12:04:31.696Z,75.40
2023-03-20T12:07:04.196Z,75.20
2023-03-20T12:09:43.382Z,75.20
2023-03-20T12:12:43.670Z,75.10
2023-03-20T12:15:16.466Z,75.30
2023-03-20T12:17:46.244Z,75.40
2023-03-20T12:20:31.552Z,75.60
2023-03-20T12:23:11.151Z,75.70
2023-03-20T12:25:54.850Z,75.70
2023-03-20T12:28:32.845Z,75.80
2023-03-20T12:31:26.592Z,75.70
2023-03-20T12:34:02.350Z,75.80
2023-03-20T12:36:36.437Z,75.60
2023-03-20T12:39:12.633Z,75.80
2023-03-20T12:41:57.530Z,75.70
2023-03-20T12:44:35.066Z,75.70
2023-03-20T12:47:01.698Z,75.50
2023-03-20T12:49:42.936Z,75.50
2023-03-20T12:52:22.990Z,75.60
2023-03-20T12:55:07.706Z,75.60
2023-03-20T12:57:51.642Z,75.40
2023-03-20T13:00:32.129Z,75.30
2023-03-20T13:03:19.932Z,75.30
2023-03-20T13:06:05.119Z,75.20
2023-03-20T13:08:37.049Z,75.10
2023-03-20T13:11:26.979Z,75.30
2023-03-20T13:14:14.153Z,75.20
2023-03-20T13:16:51.696Z,75.10
2023-03-20T13:19:42.126Z,75.20
2023-03-20T13:22:32.077Z,75.20
2023-03-20T13:25:04.926Z,75.10
2023-03-20T13:28:10.969Z,75.10
2023-03-20T13:30:44.701Z,75.10
2023-03-20T13:33:46.625Z,75.00
2023-03-20T13:36:35.131Z,75.10
2023-03-20T13:39:27.298Z,75.10
2023-03-20T13:41:55.992Z,75.00
2023-03-20T13:44:28.063Z,75.00
2023-03-20T13:46:56.992Z,74.90
2023-03-20T13:49:38.734Z,74.80
2023-03-20T13:52:05.374Z,74.80
2023-03-20T13:54:41.416Z,74.80
2023-03-20T13:58:03.889Z,74.80
2023-03-20T14:00:33.501Z,74.80
2023-03-20T14:03:11.711Z,74.80
2023-03-20T14:05:41.042Z,74.90
2023-03-20T14:08:33.426Z,74.90
2023-03-20T14:11:35.102Z,74.90
2023-03-20T14:14:25.412Z,74.90
2023-03-20T14:17:07.949Z,74.70
2023-03-20T14:19:37.449Z,74.70
2023-03-20T14:22:04.696Z,74.70
2023-03-20T14:24:37.209Z,74.70
2023-03-20T14:27:05.567Z,74.70
2023-03-20T14:29:35.166Z,74.60
2023-03-20T14:32:14.012Z,74.60
2023-03-20T14:34:50.052Z,74.60
2023-03-20T14:37:39.305Z,74.60
2023-03-20T14:40:23.026Z,74.60
2023-03-20T14:43:01.419Z,74.70
2023-03-20T14:45:37.379Z,74.80
2023-03-20T14:48:52.207Z,74.90
2023-03-20T14:51:48.202Z,75.00
2023-03-20T14:54:26.019Z,75.10
2023-03-20T14:56:53.374Z,75.10
2023-03-20T14:59:22.581Z,75.20
2023-03-20T15:02:00.618Z,75.30
2023-03-20T15:04:32.015Z,75.30
2023-03-20T15:07:17.245Z,75.30
2023-03-20T15:09:46.819Z,75.30
2023-03-20T15:12:17.691Z,75.30
2023-03-20T15:14:52.997Z,75.30
2023-03-20T15:17:23.633Z,75.30
2023-03-20T15:19:50.981Z,75.30
2023-03-20T15:22:19.921Z,75.30
2023-03-20T15:24:57.069Z,75.30
2023-03-20T15:27:26.106Z,75.20
2023-03-20T15:29:55.508Z,75.10
2023-03-20T15:32:22.482Z,75.10
2023-03-20T15:34:51.108Z,75.10
2023-03-20T15:37:24.365Z,75.10
2023-03-20T15:39:55.394Z,75.00
2023-03-20T15:42:24.872Z,75.00
2023-03-20T15:44:54.570Z,75.00
2023-03-20T15:47:23.935Z,75.00
2023-03-20T15:50:00.187Z,74.90
2023-03-20T15:52:39.361Z,74.90
2023-03-20T15:55:17.613Z,74.90
2023-03-20T15:57:47.097Z,74.80
2023-03-20T16:00:20.229Z,74.80
2023-03-20T16:02:48.938Z,74.80
2023-03-20T16:05:17.769Z,74.80
2023-03-20T16:07:44.874Z,74.80
2023-03-20T16:10:28.291Z,74.80
2023-03-20T16:12:55.376Z,74.80
2023-03-20T16:15:27.539Z,74.80
2023-03-20T16:17:58.505Z,74.80
2023-03-20T16:20:28.909Z,74.90
2023-03-20T16:23:03.077Z,74.90
2023-03-20T16:25:30.314Z,74.90
2023-03-20T16:27:58.383Z,74.90
2023-03-20T16:30:30.048Z,74.90
2023-03-20T16:33:01.697Z,74.90
2023-03-20T16:35:34.914Z,74.90
2023-03-20T16:38:02.950Z,74.90
2023-03-20T16:40:37.548Z,74.90
2023-03-20T16:43:12.329Z,74.90
2023-03-20T16:45:44.248Z,74.90
2023-03-20T16:48:13.936Z,74.90
2023-03-20T16:50:43.151Z,74.90
2023-03-20T16:53:15.791Z,75.00
2023-03-20T16:55:45.714Z,75.00
2023-03-20T16:58:21.738Z,75.00
2023-03-20T17:00:52.982Z,75.00
2023-03-20T17:03:26.537Z,75.00
2023-03-20T17:06:07.086Z,75.00
2023-03-20T17:08:48.482Z,75.00
2023-03-20T17:11:22.184Z,75.00
2023-03-20T17:13:48.837Z,75.00
2023-03-20T17:16:21.385Z,75.00
2023-03-20T17:19:02.498Z,75.00
2023-03-20T17:21:29.933Z,75.00
2023-03-20T17:23:56.768Z,74.90
2023-03-20T17:26:24.065Z,74.90
2023-03-20T17:28:51.256Z,74.90
2023-03-20T17:31:18.668Z,74.90
2023-03-20T17:33:45.901Z,74.80
2023-03-20T17:36:23.773Z,74.80
2023-03-20T17:38:51.014Z,74.80
2023-03-20T17:41:19.966Z,74.70
2023-03-20T17:43:47.217Z,74.70
2023-03-20T17:46:25.514Z,74.70
2023-03-20T17:48:57.761Z,74.70
2023-03-20T17:51:24.554Z,74.60
2023-03-20T17:53:55.191Z,74.60
2023-03-20T17:56:22.457Z,74.60
2023-03-20T17:58:49.486Z,74.60
2023-03-20T18:01:16.850Z,74.60
2023-03-20T18:03:43.787Z,74.60
2023-03-20T18:06:26.965Z,74.50
2023-03-20T18:08:54.856Z,74.60
2023-03-20T18:11:21.547Z,74.50
2023-03-20T18:13:48.194Z,74.50
2023-03-20T18:16:18.928Z,74.40
2023-03-20T18:18:45.953Z,74.50
2023-03-20T18:21:13.954Z,74.50
2023-03-20T18:23:40.646Z,74.50
2023-03-20T18:26:22.332Z,74.50
2023-03-20T18:28:50.862Z,74.50
2023-03-20T18:31:20.650Z,74.60
2023-03-20T18:33:53.723Z,74.50
2023-03-20T18:36:22.746Z,74.50
2023-03-20T18:38:50.669Z,74.50
2023-03-20T18:41:17.392Z,74.60
2023-03-20T18:43:46.387Z,74.60
2023-03-20T18:46:18.810Z,74.60
2023-03-20T18:48:46.448Z,74.60
2023-03-20T18:51:14.349Z,74.50
2023-03-20T18:53:41.454Z,74.60
2023-03-20T18:56:18.009Z,74.40
2023-03-20T18:58:47.293Z,74.40
2023-03-20T19:01:15.616Z,74.40
2023-03-20T19:03:43.316Z,74.30
2023-03-20T19:06:29.929Z,74.40
2023-03-20T19:08:56.653Z,74.40
2023-03-20T19:11:23.251Z,74.30
2023-03-20T19:13:52.380Z,74.40
2023-03-20T19:16:20.641Z,74.40
2023-03-20T19:18:49.718Z,74.40
2023-03-20T19:21:26.734Z,74.40
2023-03-20T19:26:49.592Z,74.40
2023-03-20T19:29:18.059Z,74.40
2023-03-20T19:31:44.793Z,74.40
2023-03-20T19:34:38.879Z,74.40
2023-03-20T19:36:58.181Z,74.40
2023-03-20T19:39:24.856Z,74.40
2023-03-20T19:41:52.618Z,74.40
2023-03-20T19:44:19.482Z,74.40
2023-03-20T19:46:46.183Z,74.40
2023-03-20T19:49:20.652Z,74.40
2023-03-20T19:51:48.445Z,74.40
2023-03-20T19:54:15.417Z,74.30
2023-03-20T19:56:42.121Z,74.40
2023-03-20T19:59:08.889Z,74.40
2023-03-20T20:01:36.211Z,74.40
2023-03-20T20:04:05.389Z,74.40
2023-03-20T20:06:33.094Z,74.30
2023-03-20T20:09:01.683Z,74.40
2023-03-20T20:11:28.895Z,74.30
2023-03-20T20:14:14.667Z,74.30
2023-03-20T20:16:43.109Z,74.30
2023-03-20T20:19:10.488Z,74.30
2023-03-20T20:24:24.294Z,74.30
2023-03-20T20:27:00.050Z,74.20
2023-03-20T20:29:39.639Z,74.30
2023-03-20T20:32:06.450Z,74.20
2023-03-20T20:35:34.382Z,74.20
2023-03-20T20:38:09.060Z,74.20
2023-03-20T20:40:12.571Z,74.20
2023-03-20T20:42:39.301Z,74.20
2023-03-20T20:45:08.565Z,74.20
2023-03-20T20:47:35.267Z,74.20
2023-03-20T20:50:04.004Z,74.20
2023-03-20T20:52:34.672Z,74.20
2023-03-20T20:55:19.321Z,74.20
2023-03-20T20:57:48.885Z,74.10
2023-03-20T21:00:16.670Z,74.20
2023-03-20T21:02:43.392Z,74.20
2023-03-20T21:05:12.704Z,74.20
2023-03-20T21:07:42.737Z,74.20
2023-03-20T21:10:12.432Z,74.20
2023-03-20T21:12:55.941Z,74.10
2023-03-20T21:15:25.333Z,74.10
2023-03-20T21:18:00.591Z,74.10
2023-03-20T21:20:29.229Z,74.10
2023-03-20T21:22:55.903Z,74.10
2023-03-20T21:25:36.372Z,74.00
2023-03-20T21:28:06.528Z,74.00
2023-03-20T21:30:33.688Z,74.00
2023-03-20T21:33:00.562Z,74.00
2023-03-20T21:35:27.432Z,74.10
2023-03-20T21:40:41.901Z,74.00
2023-03-20T21:43:09.369Z,74.00
2023-03-20T21:49:29.942Z,74.00
2023-03-20T21:52:14.564Z,74.00
2023-03-20T21:54:47.609Z,74.00
2023-03-20T22:00:05.438Z,74.00
2023-03-20T22:02:23.508Z,74.00
2023-03-20T22:05:48.348Z,74.00
2023-03-20T22:08:26.517Z,74.00
2023-03-20T22:11:24.721Z,74.00
2023-03-20T22:16:43.191Z,74.10
2023-03-20T22:19:45.961Z,74.00
2023-03-20T22:30:52.623Z,74.00
2023-03-20T22:33:46.952Z,74.00
2023-03-20T22:36:25.691Z,74.00
2023-03-20T22:39:17.438Z,74.00
2023-03-20T22:42:00.706Z,74.00
2023-03-20T22:46:47.046Z,74.00
2023-03-20T22:49:14.478Z,74.00
2023-03-20T22:51:57.429Z,74.00
2023-03-20T22:54:28.013Z,74.00
2023-03-20T22:56:55.430Z,74.00
2023-03-20T22:59:22.062Z,74.00
2023-03-20T23:01:48.747Z,74.00
2023-03-20T23:04:15.480Z,74.00
2023-03-20T23:06:42.534Z,74.00
2023-03-20T23:09:15.175Z,74.00
2023-03-20T23:11:42.852Z,73.90
2023-03-20T23:14:24.982Z,73.90
2023-03-20T23:16:53.215Z,74.00
2023-03-20T23:19:19.904Z,74.00
2023-03-20T23:21:46.553Z,74.00
2023-03-20T23:24:13.213Z,74.00
2023-03-20T23:26:39.818Z,73.90
2023-03-20T23:29:06.459Z,73.90
2023-03-20T23:31:33.250Z,73.90
2023-03-20T23:33:59.962Z,73.90
2023-03-20T23:36:42.455Z,73.90
2023-03-20T23:39:11.197Z,74.00
2023-03-20T23:44:25.150Z,73.90
2023-03-20T23:46:51.878Z,74.00
2023-03-20T23:49:18.544Z,74.00
2023-03-20T23:51:45.472Z,74.00
2023-03-20T23:54:12.486Z,74.00
2023-03-20T23:56:39.250Z,74.10
2023-03-20T23:59:20.083Z,74.00
